createdAt,value
2022-08-28T00:00:08.310Z,31.13
2022-08-28T00:00:42.001Z,41.20
2022-08-28T00:01:16.867Z,21.05
2022-08-28T00:01:49.022Z,28.30
2022-08-28T00:02:21.340Z,16.20
2022-08-28T00:02:56.520Z,25.02
2022-08-28T00:03:30.375Z,29.33
2022-08-28T00:04:02.966Z,41.13
2022-08-28T00:04:38.743Z,40.30
2022-08-28T00:05:15.391Z,25.17
2022-08-28T00:05:47.850Z,24.40
2022-08-28T00:06:22.672Z,30.63
2022-08-28T00:06:54.963Z,28.70
2022-08-28T00:07:27.258Z,35.38
2022-08-28T00:08:02.684Z,29.65
2022-08-28T00:08:35.426Z,20.88
2022-08-28T00:09:08.247Z,29.98
2022-08-28T00:09:46.190Z,36.30
2022-08-28T00:10:22.341Z,19.92
2022-08-28T00:10:54.889Z,36.03
2022-08-28T00:11:29.672Z,43.45
2022-08-28T00:12:01.965Z,48.42
2022-08-28T00:12:35.657Z,37.05
2022-08-28T00:13:15.554Z,31.60
2022-08-28T00:13:47.939Z,20.27
2022-08-28T00:14:21.227Z,25.52
2022-08-28T00:14:56.184Z,26.40
2022-08-28T00:15:33.456Z,20.77
2022-08-28T00:16:06.700Z,35.08
2022-08-28T00:16:41.567Z,24.42
2022-08-28T00:17:13.774Z,23.25
2022-08-28T00:17:46.087Z,15.63
2022-08-28T00:18:21.341Z,47.47
2022-08-28T00:18:53.502Z,19.92
2022-08-28T00:19:25.899Z,26.95
2022-08-28T00:20:00.678Z,21.15
2022-08-28T00:20:35.933Z,30.60
2022-08-28T00:21:10.763Z,25.60
2022-08-28T00:21:43.047Z,20.15
2022-08-28T00:22:15.314Z,19.95
2022-08-28T00:22:48.676Z,25.25
2022-08-28T00:23:23.551Z,19.83
2022-08-28T00:23:57.457Z,22.58
2022-08-28T00:24:29.708Z,23.95
2022-08-28T00:25:04.556Z,49.10
2022-08-28T00:25:37.564Z,14.40
2022-08-28T00:26:10.159Z,23.13
2022-08-28T00:26:58.127Z,26.50
2022-08-28T00:27:45.341Z,19.20
2022-08-28T00:28:24.334Z,31.05
2022-08-28T00:28:56.790Z,24.35
2022-08-28T00:29:29.801Z,25.15
2022-08-28T00:30:02.117Z,45.92
2022-08-28T00:30:40.225Z,27.65
2022-08-28T00:31:12.664Z,23.42
2022-08-28T00:31:47.641Z,35.50
2022-08-28T00:32:23.667Z,34.72
2022-08-28T00:33:01.229Z,35.78
2022-08-28T00:33:35.027Z,17.52
2022-08-28T00:34:08.499Z,52.28
2022-08-28T00:34:43.594Z,29.65
2022-08-28T00:35:17.636Z,37.70
2022-08-28T00:35:55.908Z,28.85
2022-08-28T00:36:29.047Z,25.42
2022-08-28T00:37:01.272Z,27.95
2022-08-28T00:37:33.839Z,26.48
2022-08-28T00:38:08.975Z,22.60
2022-08-28T00:38:42.121Z,18.35
2022-08-28T00:39:14.959Z,24.55
2022-08-28T00:39:53.881Z,26.15
2022-08-28T00:40:32.437Z,21.50
2022-08-28T00:41:08.002Z,19.27
2022-08-28T00:41:41.266Z,31.02
2022-08-28T00:42:13.860Z,21.10
2022-08-28T00:42:50.050Z,23.63
2022-08-28T00:43:33.741Z,26.85
2022-08-28T00:44:13.828Z,33.67
2022-08-28T00:44:46.410Z,22.48
2022-08-28T00:45:20.356Z,37.70
2022-08-28T00:45:55.338Z,20.17
2022-08-28T00:46:27.546Z,35.78
2022-08-28T00:47:00.376Z,26.42
2022-08-28T00:47:35.500Z,30.98
2022-08-28T00:48:08.315Z,20.15
2022-08-28T00:48:41.576Z,20.35
2022-08-28T00:49:18.828Z,34.83
2022-08-28T00:49:53.166Z,29.98
2022-08-28T00:50:28.369Z,26.50
2022-08-28T00:51:18.933Z,29.27
2022-08-28T00:52:08.211Z,21.35
2022-08-28T00:52:49.120Z,22.27
2022-08-28T00:53:23.491Z,28.80
2022-08-28T00:54:01.390Z,25.17
2022-08-28T00:54:39.919Z,31.13
2022-08-28T00:55:20.038Z,20.88
2022-08-28T00:55:52.246Z,27.00
2022-08-28T00:56:25.725Z,25.77
2022-08-28T00:57:00.596Z,26.75
2022-08-28T00:57:36.291Z,23.20
2022-08-28T00:58:13.224Z,18.77
2022-08-28T00:58:47.323Z,28.40
2022-08-28T00:59:23.446Z,33.55
2022-08-28T00:59:58.298Z,26.67
2022-08-28T01:00:33.882Z,25.15
2022-08-28T01:01:06.583Z,26.80
2022-08-28T01:01:41.700Z,25.58
2022-08-28T01:02:14.173Z,31.48
2022-08-28T01:02:46.759Z,21.25
2022-08-28T01:03:26.434Z,31.30
2022-08-28T01:03:58.736Z,23.08
2022-08-28T01:04:32.519Z,25.75
2022-08-28T01:05:10.456Z,34.55
2022-08-28T01:05:43.718Z,28.05
2022-08-28T01:06:20.680Z,28.80
2022-08-28T01:06:58.255Z,21.83
2022-08-28T01:07:30.651Z,23.40
2022-08-28T01:08:04.522Z,35.17
2022-08-28T01:08:43.597Z,21.50
2022-08-28T01:09:21.008Z,29.90
2022-08-28T01:09:55.125Z,42.30
2022-08-28T01:10:33.542Z,28.92
2022-08-28T01:11:07.533Z,21.17
2022-08-28T01:11:42.086Z,24.23
2022-08-28T01:12:20.807Z,25.80
2022-08-28T01:12:54.895Z,21.73
2022-08-28T01:13:28.039Z,20.75
2022-08-28T01:14:05.485Z,19.73
2022-08-28T01:14:41.208Z,35.05
2022-08-28T01:15:19.458Z,16.40
2022-08-28T01:15:52.055Z,18.65
2022-08-28T01:16:31.605Z,18.10
2022-08-28T01:17:10.730Z,40.20
2022-08-28T01:17:50.137Z,18.70
2022-08-28T01:18:22.922Z,53.47
2022-08-28T01:18:58.119Z,24.13
2022-08-28T01:19:37.467Z,47.22
2022-08-28T01:20:16.014Z,20.75
2022-08-28T01:20:55.112Z,33.15
2022-08-28T01:21:37.775Z,25.27
2022-08-28T01:22:21.220Z,21.60
2022-08-28T01:23:01.840Z,20.67
2022-08-28T01:23:58.207Z,24.45
2022-08-28T01:24:31.474Z,26.67
2022-08-28T01:25:07.427Z,38.70
2022-08-28T01:25:43.667Z,28.20
2022-08-28T01:26:15.921Z,29.88
2022-08-28T01:26:48.107Z,24.08
2022-08-28T01:27:21.814Z,26.80
2022-08-28T01:28:00.257Z,25.92
2022-08-28T01:28:32.555Z,25.75
2022-08-28T01:29:05.292Z,24.52
2022-08-28T01:29:40.206Z,23.05
2022-08-28T01:30:16.891Z,30.10
2022-08-28T01:30:51.917Z,33.63
2022-08-28T01:31:25.427Z,23.30
2022-08-28T01:31:57.889Z,28.48
2022-08-28T01:32:36.609Z,35.15
2022-08-28T01:33:08.900Z,29.38
2022-08-28T01:33:46.389Z,27.58
2022-08-28T01:34:21.354Z,43.17
2022-08-28T01:34:53.538Z,29.15
2022-08-28T01:35:28.764Z,36.75
2022-08-28T01:36:03.639Z,25.85
2022-08-28T01:36:37.029Z,30.38
2022-08-28T01:37:09.175Z,27.85
2022-08-28T01:37:42.304Z,37.50
2022-08-28T01:38:20.219Z,26.35
2022-08-28T01:39:05.182Z,25.80
2022-08-28T01:39:40.061Z,30.83
2022-08-28T01:40:17.762Z,18.83
2022-08-28T01:40:53.653Z,20.40
2022-08-28T01:41:29.682Z,29.27
2022-08-28T01:42:02.887Z,21.90
2022-08-28T01:42:37.136Z,19.95
2022-08-28T01:43:14.279Z,31.70
2022-08-28T01:43:46.561Z,30.42
2022-08-28T01:44:25.885Z,29.02
2022-08-28T01:45:00.625Z,23.80
2022-08-28T01:45:32.833Z,40.30
2022-08-28T01:46:06.312Z,31.70
2022-08-28T01:46:44.061Z,28.33
2022-08-28T01:47:16.829Z,28.95
2022-08-28T01:47:49.177Z,28.80
2022-08-28T01:48:29.083Z,25.48
2022-08-28T01:49:01.328Z,25.58
2022-08-28T01:49:34.823Z,22.95
2022-08-28T01:50:11.484Z,32.55
2022-08-28T01:50:45.353Z,29.08
2022-08-28T01:51:20.486Z,34.03
2022-08-28T01:52:00.828Z,22.45
2022-08-28T01:52:36.642Z,25.63
2022-08-28T01:53:12.446Z,24.75
2022-08-28T01:53:47.310Z,30.80
2022-08-28T01:54:22.045Z,28.15
2022-08-28T01:54:54.648Z,30.15
2022-08-28T01:55:30.951Z,20.95
2022-08-28T01:56:08.748Z,29.05
2022-08-28T01:56:42.323Z,23.83
2022-08-28T01:57:17.990Z,18.48
2022-08-28T01:57:54.163Z,24.25
2022-08-28T01:58:28.110Z,32.15
2022-08-28T01:59:08.141Z,34.72
2022-08-28T01:59:40.422Z,37.65
2022-08-28T02:00:15.260Z,36.15
2022-08-28T02:00:50.155Z,24.00
2022-08-28T02:01:23.055Z,26.50
2022-08-28T02:01:58.057Z,32.97
2022-08-28T02:02:31.876Z,35.30
2022-08-28T02:03:04.144Z,27.30
2022-08-28T02:03:36.377Z,26.00
2022-08-28T02:04:11.592Z,13.57
2022-08-28T02:04:47.944Z,29.92
2022-08-28T02:05:20.437Z,24.92
2022-08-28T02:05:55.287Z,27.25
2022-08-28T02:06:27.465Z,30.70
2022-08-28T02:07:00.106Z,32.70
2022-08-28T02:07:35.329Z,24.38
2022-08-28T02:08:08.369Z,27.08
2022-08-28T02:08:41.074Z,32.92
2022-08-28T02:09:15.909Z,40.22
2022-08-28T02:09:50.607Z,26.02
2022-08-28T02:10:25.461Z,39.30
2022-08-28T02:11:00.818Z,25.05
2022-08-28T02:11:33.175Z,40.10
2022-08-28T02:12:07.044Z,35.08
2022-08-28T02:12:43.230Z,19.33
2022-08-28T02:13:15.589Z,23.75
2022-08-28T02:13:51.443Z,22.42
2022-08-28T02:14:29.267Z,20.10
2022-08-28T02:15:01.457Z,38.22
2022-08-28T02:15:38.395Z,23.70
2022-08-28T02:16:11.101Z,40.42
2022-08-28T02:16:43.474Z,29.33
2022-08-28T02:17:18.178Z,23.00
2022-08-28T02:17:50.414Z,20.40
2022-08-28T02:18:22.979Z,33.22
2022-08-28T02:18:57.988Z,33.80
2022-08-28T02:19:32.112Z,33.28
2022-08-28T02:20:05.710Z,27.48
2022-08-28T02:20:43.041Z,24.50
2022-08-28T02:21:15.329Z,44.08
2022-08-28T02:21:47.654Z,31.38
2022-08-28T02:22:22.391Z,26.65
2022-08-28T02:22:55.196Z,23.25
2022-08-28T02:23:27.611Z,26.77
2022-08-28T02:24:02.594Z,31.75
2022-08-28T02:24:34.855Z,22.67
2022-08-28T02:25:14.032Z,27.25
2022-08-28T02:25:49.901Z,20.33
2022-08-28T02:26:23.618Z,25.02
2022-08-28T02:26:55.838Z,25.50
2022-08-28T02:27:28.058Z,34.22
2022-08-28T02:28:02.957Z,23.70
2022-08-28T02:28:35.150Z,29.38
2022-08-28T02:29:07.398Z,37.30
2022-08-28T02:29:42.409Z,29.75
2022-08-28T02:30:18.187Z,27.48
2022-08-28T02:30:50.448Z,27.42
2022-08-28T02:31:25.254Z,48.75
2022-08-28T02:31:57.616Z,36.05
2022-08-28T02:32:29.933Z,26.48
2022-08-28T02:33:04.773Z,23.45
2022-08-28T02:33:38.465Z,38.20
2022-08-28T02:34:11.248Z,32.88
2022-08-28T02:34:46.169Z,50.65
2022-08-28T02:35:20.036Z,40.90
2022-08-28T02:35:53.071Z,50.65
2022-08-28T02:36:27.825Z,53.22
2022-08-28T02:36:59.983Z,29.85
2022-08-28T02:37:32.169Z,24.77
2022-08-28T02:38:07.208Z,27.63
2022-08-28T02:38:39.566Z,32.85
2022-08-28T02:39:12.118Z,44.92
2022-08-28T02:39:46.937Z,54.92
2022-08-28T02:40:23.803Z,36.20
2022-08-28T02:40:56.143Z,20.25
2022-08-28T02:41:31.460Z,22.77
2022-08-28T02:42:03.986Z,26.20
2022-08-28T02:42:36.147Z,22.52
2022-08-28T02:43:10.974Z,26.38
2022-08-28T02:43:43.218Z,44.13
2022-08-28T02:44:15.347Z,30.35
2022-08-28T02:44:50.052Z,42.67
2022-08-28T02:45:22.330Z,42.42
2022-08-28T02:45:54.497Z,38.90
2022-08-28T02:46:29.358Z,35.00
2022-08-28T02:47:01.682Z,50.72
2022-08-28T02:47:33.808Z,31.05
2022-08-28T02:48:15.590Z,44.03
2022-08-28T02:48:50.457Z,30.20
2022-08-28T02:49:23.234Z,27.88
2022-08-28T02:49:58.078Z,34.83
2022-08-28T02:50:31.616Z,55.70
2022-08-28T02:51:06.564Z,30.15
2022-08-28T02:51:41.357Z,24.98
2022-08-28T02:52:13.697Z,29.75
2022-08-28T02:52:46.671Z,23.88
2022-08-28T02:53:23.819Z,34.83
2022-08-28T02:53:56.463Z,23.67
2022-08-28T02:54:28.662Z,37.92
2022-08-28T02:55:03.376Z,27.38
2022-08-28T02:55:39.912Z,27.20
2022-08-28T02:56:12.368Z,40.92
2022-08-28T02:56:47.150Z,39.03
2022-08-28T02:57:19.307Z,37.35
2022-08-28T02:57:52.855Z,22.55
2022-08-28T02:58:28.590Z,33.53
2022-08-28T02:59:00.853Z,35.30
2022-08-28T02:59:33.123Z,33.63
2022-08-28T03:00:06.451Z,31.35
2022-08-28T03:00:42.208Z,26.13
2022-08-28T03:01:14.511Z,33.78
2022-08-28T03:01:46.843Z,30.25
2022-08-28T03:02:21.799Z,26.45
2022-08-28T03:02:55.243Z,35.35
2022-08-28T03:03:28.181Z,29.17
2022-08-28T03:04:05.496Z,34.85
2022-08-28T03:04:38.575Z,29.60
2022-08-28T03:05:11.542Z,38.63
2022-08-28T03:05:46.355Z,51.70
2022-08-28T03:06:18.660Z,31.33
2022-08-28T03:06:51.188Z,27.45
2022-08-28T03:07:25.987Z,24.23
2022-08-28T03:07:58.264Z,40.35
2022-08-28T03:08:32.117Z,29.40
2022-08-28T03:09:07.205Z,36.70
2022-08-28T03:09:40.382Z,41.78
2022-08-28T03:10:13.479Z,25.75
2022-08-28T03:10:50.810Z,20.55
2022-08-28T03:11:23.516Z,38.13
2022-08-28T03:11:55.835Z,24.15
2022-08-28T03:12:30.640Z,22.98
2022-08-28T03:13:02.798Z,31.70
2022-08-28T03:13:35.473Z,26.23
2022-08-28T03:14:10.576Z,34.72
2022-08-28T03:14:42.937Z,33.83
2022-08-28T03:15:15.172Z,28.92
2022-08-28T03:15:55.525Z,27.67
2022-08-28T03:16:28.350Z,25.80
2022-08-28T03:17:01.485Z,25.77
2022-08-28T03:17:37.032Z,24.05
2022-08-28T03:18:11.335Z,26.67
2022-08-28T03:18:46.351Z,26.17
2022-08-28T03:19:19.157Z,21.45
2022-08-28T03:19:52.318Z,25.77
2022-08-28T03:20:27.206Z,33.40
2022-08-28T03:20:59.659Z,28.00
2022-08-28T03:21:31.834Z,32.58
2022-08-28T03:22:06.906Z,29.17
2022-08-28T03:22:54.295Z,28.80
2022-08-28T03:23:26.482Z,21.38
2022-08-28T03:23:58.687Z,21.30
2022-08-28T03:24:30.945Z,34.00
2022-08-28T03:25:04.107Z,30.63
2022-08-28T03:25:38.861Z,45.88
2022-08-28T03:26:16.701Z,26.95
2022-08-28T03:26:49.283Z,36.72
2022-08-28T03:27:23.992Z,27.48
2022-08-28T03:27:56.522Z,35.28
2022-08-28T03:28:30.800Z,29.27
2022-08-28T03:29:06.087Z,30.83
2022-08-28T03:29:38.451Z,36.80
2022-08-28T03:30:11.828Z,28.02
2022-08-28T03:30:46.668Z,18.48
2022-08-28T03:31:21.687Z,27.75
2022-08-28T03:31:56.675Z,24.25
2022-08-28T03:32:29.391Z,34.95
2022-08-28T03:33:01.765Z,30.63
2022-08-28T03:33:37.002Z,28.55
2022-08-28T03:34:09.684Z,32.67
2022-08-28T03:34:41.841Z,25.42
2022-08-28T03:35:14.054Z,35.65
2022-08-28T03:35:49.024Z,22.35
2022-08-28T03:36:25.865Z,21.92
2022-08-28T03:36:58.050Z,38.38
2022-08-28T03:37:30.205Z,21.65
2022-08-28T03:38:04.982Z,28.48
2022-08-28T03:38:37.211Z,44.35
2022-08-28T03:39:12.024Z,45.03
2022-08-28T03:39:44.252Z,34.92
2022-08-28T03:40:16.887Z,29.60
2022-08-28T03:40:51.834Z,34.17
2022-08-28T03:41:30.201Z,27.33
2022-08-28T03:42:02.439Z,45.33
2022-08-28T03:42:35.275Z,27.38
2022-08-28T03:43:10.080Z,22.10
2022-08-28T03:43:42.740Z,29.70
2022-08-28T03:44:15.917Z,38.38
2022-08-28T03:44:49.292Z,43.58
2022-08-28T03:45:24.871Z,43.67
2022-08-28T03:46:00.429Z,23.42
2022-08-28T03:46:34.037Z,37.10
2022-08-28T03:47:09.217Z,40.80
2022-08-28T03:47:43.128Z,39.25
2022-08-28T03:48:15.622Z,44.00
2022-08-28T03:48:51.234Z,32.38
2022-08-28T03:49:23.434Z,35.13
2022-08-28T03:49:56.630Z,34.10
2022-08-28T03:50:31.748Z,40.90
2022-08-28T03:51:08.203Z,47.50
2022-08-28T03:51:44.226Z,39.00
2022-08-28T03:52:16.427Z,38.75
2022-08-28T03:52:48.707Z,40.03
2022-08-28T03:53:23.670Z,42.28
2022-08-28T03:53:56.526Z,28.23
2022-08-28T03:54:31.802Z,59.97
2022-08-28T03:55:07.734Z,44.85
2022-08-28T03:55:41.327Z,43.38
2022-08-28T03:56:22.450Z,35.83
2022-08-28T03:56:57.208Z,49.30
2022-08-28T03:57:30.016Z,25.63
2022-08-28T03:58:04.884Z,47.38
2022-08-28T03:58:38.594Z,24.25
2022-08-28T03:59:10.758Z,46.60
2022-08-28T03:59:45.539Z,41.30
2022-08-28T04:00:19.253Z,43.03
2022-08-28T04:00:51.730Z,40.83
2022-08-28T04:01:26.610Z,39.30
2022-08-28T04:01:58.849Z,30.15
2022-08-28T04:02:31.506Z,61.13
2022-08-28T04:03:06.942Z,49.70
2022-08-28T04:03:39.267Z,40.15
2022-08-28T04:04:11.451Z,46.17
2022-08-28T04:04:46.254Z,36.50
2022-08-28T04:05:18.643Z,39.97
2022-08-28T04:05:52.014Z,33.25
2022-08-28T04:06:27.685Z,32.38
2022-08-28T04:06:59.879Z,49.17
2022-08-28T04:07:32.115Z,49.00
2022-08-28T04:08:07.784Z,32.65
2022-08-28T04:08:40.572Z,38.92
2022-08-28T04:09:12.914Z,40.65
2022-08-28T04:09:47.795Z,31.92
2022-08-28T04:10:20.192Z,34.55
2022-08-28T04:10:52.865Z,31.58
2022-08-28T04:11:27.791Z,28.50
2022-08-28T04:12:02.822Z,46.60
2022-08-28T04:12:36.153Z,31.95
2022-08-28T04:13:11.278Z,30.20
2022-08-28T04:13:43.523Z,57.20
2022-08-28T04:14:16.985Z,29.70
2022-08-28T04:14:51.765Z,40.63
2022-08-28T04:15:24.005Z,32.97
2022-08-28T04:15:58.437Z,40.38
2022-08-28T04:16:33.203Z,43.83
2022-08-28T04:17:06.049Z,26.05
2022-08-28T04:17:39.110Z,39.03
2022-08-28T04:18:15.110Z,34.75
2022-08-28T04:18:50.006Z,36.92
2022-08-28T04:19:22.303Z,38.80
2022-08-28T04:19:57.373Z,32.53
2022-08-28T04:20:29.909Z,42.35
2022-08-28T04:21:05.818Z,54.45
2022-08-28T04:21:40.654Z,45.75
2022-08-28T04:22:13.007Z,44.75
2022-08-28T04:22:45.249Z,72.20
2022-08-28T04:23:19.986Z,36.58
2022-08-28T04:23:52.361Z,57.78
2022-08-28T04:24:24.687Z,30.77
2022-08-28T04:24:59.455Z,43.17
2022-08-28T04:25:32.057Z,41.53
2022-08-28T04:26:05.055Z,52.42
2022-08-28T04:26:39.887Z,41.95
2022-08-28T04:27:15.137Z,47.90
2022-08-28T04:27:47.858Z,50.13
2022-08-28T04:28:22.830Z,50.50
2022-08-28T04:28:56.188Z,55.05
2022-08-28T04:29:30.332Z,38.30
2022-08-28T04:30:05.144Z,57.80
2022-08-28T04:30:41.420Z,58.70
2022-08-28T04:31:15.072Z,46.00
2022-08-28T04:31:49.970Z,44.22
2022-08-28T04:32:22.860Z,41.00
2022-08-28T04:32:54.995Z,55.58
2022-08-28T04:33:31.194Z,64.55
2022-08-28T04:34:06.021Z,51.50
2022-08-28T04:34:38.280Z,49.28
2022-08-28T04:35:15.008Z,67.75
2022-08-28T04:35:47.270Z,38.42
2022-08-28T04:36:19.959Z,40.50
2022-08-28T04:36:55.558Z,43.85
2022-08-28T04:37:27.889Z,62.78
2022-08-28T04:38:00.205Z,61.25
2022-08-28T04:38:35.059Z,56.25
2022-08-28T04:39:08.795Z,46.42
2022-08-28T04:39:40.968Z,47.20
2022-08-28T04:40:16.103Z,45.47
2022-08-28T04:40:48.463Z,44.55
2022-08-28T04:41:20.865Z,53.88
2022-08-28T04:41:58.297Z,33.10
2022-08-28T04:42:33.019Z,61.63
2022-08-28T04:43:05.299Z,35.90
2022-08-28T04:43:40.138Z,55.63
2022-08-28T04:44:12.468Z,50.22
2022-08-28T04:44:44.629Z,37.58
2022-08-28T04:45:19.599Z,41.17
2022-08-28T04:45:51.855Z,46.55
2022-08-28T04:46:24.719Z,29.42
2022-08-28T04:46:59.543Z,41.20
2022-08-28T04:47:35.138Z,48.50
2022-08-28T04:48:13.089Z,52.67
2022-08-28T04:48:48.634Z,52.80
2022-08-28T04:49:21.026Z,50.72
2022-08-28T04:49:53.533Z,45.25
2022-08-28T04:50:28.650Z,49.35
2022-08-28T04:51:00.849Z,54.30
2022-08-28T04:51:33.438Z,46.65
2022-08-28T04:52:08.474Z,30.27
2022-08-28T04:52:40.742Z,94.93
2022-08-28T04:53:14.090Z,41.03
2022-08-28T04:53:48.875Z,36.20
2022-08-28T04:54:21.443Z,39.88
2022-08-28T04:54:53.642Z,56.03
2022-08-28T04:55:27.872Z,59.65
2022-08-28T04:56:20.714Z,33.83
2022-08-28T04:56:52.996Z,52.03
2022-08-28T04:57:27.894Z,26.25
2022-08-28T04:58:02.658Z,41.70
2022-08-28T04:58:35.106Z,50.00
2022-08-28T04:59:10.251Z,59.42
2022-08-28T04:59:45.147Z,57.38
2022-08-28T05:00:17.759Z,39.70
2022-08-28T05:00:52.654Z,44.65
2022-08-28T05:01:25.825Z,38.75
2022-08-28T05:01:58.194Z,61.40
2022-08-28T05:02:33.114Z,40.90
2022-08-28T05:03:05.780Z,40.25
2022-08-28T05:03:38.033Z,25.58
2022-08-28T05:04:14.330Z,31.27
2022-08-28T05:04:47.417Z,25.45
2022-08-28T05:05:20.012Z,43.72
2022-08-28T05:05:57.868Z,38.90
2022-08-28T05:06:31.729Z,43.58
2022-08-28T05:07:06.695Z,30.10
2022-08-28T05:07:38.909Z,36.38
2022-08-28T05:08:15.871Z,42.95
2022-08-28T05:08:50.734Z,40.67
2022-08-28T05:09:22.940Z,36.58
2022-08-28T05:09:55.145Z,49.28
2022-08-28T05:10:30.137Z,41.05
2022-08-28T05:11:10.958Z,41.70
2022-08-28T05:11:46.517Z,33.08
2022-08-28T05:12:19.838Z,49.38
2022-08-28T05:12:54.889Z,61.97
2022-08-28T05:13:29.630Z,67.30
2022-08-28T05:14:05.576Z,54.63
2022-08-28T05:14:37.858Z,42.47
2022-08-28T05:15:11.339Z,44.63
2022-08-28T05:15:46.123Z,53.50
2022-08-28T05:16:22.110Z,33.15
2022-08-28T05:16:55.588Z,45.97
2022-08-28T05:17:27.919Z,44.08
2022-08-28T05:18:07.255Z,51.95
2022-08-28T05:18:39.615Z,34.65
2022-08-28T05:19:15.156Z,38.63
2022-08-28T05:19:48.323Z,31.92
2022-08-28T05:20:23.130Z,49.03
2022-08-28T05:20:55.351Z,39.83
2022-08-28T05:21:28.359Z,47.72
2022-08-28T05:22:03.148Z,33.50
2022-08-28T05:22:35.657Z,54.45
2022-08-28T05:23:09.403Z,38.75
2022-08-28T05:23:44.577Z,37.58
2022-08-28T05:24:17.138Z,51.63
2022-08-28T05:24:49.287Z,38.97
2022-08-28T05:25:24.089Z,47.67
2022-08-28T05:25:56.579Z,40.42
2022-08-28T05:26:29.901Z,38.17
2022-08-28T05:27:08.767Z,46.63
2022-08-28T05:27:41.370Z,58.42
2022-08-28T05:28:17.074Z,59.58
2022-08-28T05:28:56.361Z,49.78
2022-08-28T05:29:28.524Z,52.47
2022-08-28T05:30:02.214Z,36.08
2022-08-28T05:30:37.397Z,45.15
2022-08-28T05:31:10.965Z,53.60
2022-08-28T05:31:43.295Z,42.80
2022-08-28T05:32:18.726Z,31.05
2022-08-28T05:32:50.881Z,43.95
2022-08-28T05:33:23.098Z,64.13
2022-08-28T05:33:58.437Z,49.85
2022-08-28T05:34:31.830Z,54.28
2022-08-28T05:35:04.762Z,67.07
2022-08-28T05:35:41.554Z,57.15
2022-08-28T05:36:15.833Z,61.33
2022-08-28T05:36:48.834Z,49.67
2022-08-28T05:37:23.618Z,83.53
2022-08-28T05:37:56.036Z,30.40
2022-08-28T05:38:28.746Z,41.08
2022-08-28T05:39:05.679Z,56.13
2022-08-28T05:39:37.927Z,68.95
2022-08-28T05:40:11.011Z,39.85
2022-08-28T05:40:48.290Z,48.17
2022-08-28T05:41:21.838Z,57.30
2022-08-28T05:41:56.672Z,50.63
2022-08-28T05:42:30.585Z,114.60
2022-08-28T05:43:03.590Z,44.90
2022-08-28T05:43:39.283Z,42.28
2022-08-28T05:44:16.234Z,57.78
2022-08-28T05:44:54.677Z,70.07
2022-08-28T05:45:27.115Z,124.20
2022-08-28T05:46:01.279Z,61.53
2022-08-28T05:46:36.955Z,77.05
2022-08-28T05:47:09.351Z,72.80
2022-08-28T05:47:41.566Z,99.55
2022-08-28T05:48:16.423Z,73.97
2022-08-28T05:48:49.538Z,128.05
2022-08-28T05:49:25.031Z,93.07
2022-08-28T05:49:57.187Z,91.85
2022-08-28T05:50:29.388Z,52.42
2022-08-28T05:51:10.109Z,100.80
2022-08-28T05:51:43.192Z,76.10
2022-08-28T05:52:16.071Z,63.92
2022-08-28T05:52:50.848Z,54.67
2022-08-28T05:53:23.436Z,55.45
2022-08-28T05:53:57.770Z,61.80
2022-08-28T05:54:32.883Z,69.22
2022-08-28T05:55:06.809Z,80.10
2022-08-28T05:55:40.576Z,74.65
2022-08-28T05:56:18.509Z,72.13
2022-08-28T05:56:50.699Z,73.32
2022-08-28T05:57:22.893Z,55.78
2022-08-28T05:58:17.639Z,54.13
2022-08-28T05:58:49.937Z,65.35
2022-08-28T05:59:27.315Z,47.92
2022-08-28T05:59:59.482Z,71.13
2022-08-28T06:00:32.807Z,42.70
2022-08-28T06:01:10.780Z,105.93
2022-08-28T06:01:48.120Z,106.82
2022-08-28T06:02:20.341Z,114.22
2022-08-28T06:02:52.628Z,116.32
2022-08-28T06:03:27.459Z,51.70
2022-08-28T06:04:02.443Z,72.63
2022-08-28T06:04:37.510Z,73.18
2022-08-28T06:05:12.640Z,73.00
2022-08-28T06:05:45.514Z,67.60
2022-08-28T06:06:20.304Z,61.72
2022-08-28T06:06:53.265Z,89.97
2022-08-28T06:07:28.072Z,72.60
2022-08-28T06:08:00.489Z,85.90
2022-08-28T06:08:32.830Z,75.55
2022-08-28T06:09:10.530Z,74.70
2022-08-28T06:09:43.887Z,87.20
2022-08-28T06:10:16.189Z,76.07
2022-08-28T06:10:51.171Z,75.03
2022-08-28T06:11:23.607Z,55.88
2022-08-28T06:12:02.474Z,56.63
2022-08-28T06:12:34.737Z,58.45
2022-08-28T06:13:07.126Z,76.10
2022-08-28T06:13:42.518Z,76.60
2022-08-28T06:14:18.370Z,65.72
2022-08-28T06:14:55.855Z,92.25
2022-08-28T06:15:29.181Z,76.00
2022-08-28T06:16:01.422Z,67.70
2022-08-28T06:16:36.414Z,44.42
2022-08-28T06:17:08.838Z,52.28
2022-08-28T06:17:41.041Z,61.10
2022-08-28T06:18:16.506Z,51.47
2022-08-28T06:18:48.952Z,65.00
2022-08-28T06:19:23.177Z,72.70
2022-08-28T06:19:57.993Z,62.20
2022-08-28T06:20:30.234Z,33.53
2022-08-28T06:21:02.963Z,58.38
2022-08-28T06:21:37.950Z,56.88
2022-08-28T06:22:12.408Z,65.45
2022-08-28T06:22:44.612Z,71.00
2022-08-28T06:23:24.232Z,57.28
2022-08-28T06:23:57.065Z,36.38
2022-08-28T06:24:33.093Z,48.75
2022-08-28T06:25:08.171Z,79.32
2022-08-28T06:25:41.486Z,67.25
2022-08-28T06:26:18.591Z,55.47
2022-08-28T06:26:52.155Z,63.22
2022-08-28T06:27:25.365Z,56.90
2022-08-28T06:28:00.311Z,48.20
2022-08-28T06:28:33.135Z,65.32
2022-08-28T06:29:08.044Z,89.68
2022-08-28T06:29:43.473Z,59.33
2022-08-28T06:30:18.369Z,51.00
2022-08-28T06:31:18.510Z,78.88
2022-08-28T06:31:48.921Z,56.60
2022-08-28T06:32:21.263Z,42.17
2022-08-28T06:32:53.485Z,66.28
2022-08-28T06:33:28.331Z,77.20
2022-08-28T06:34:01.595Z,61.60
2022-08-28T06:34:36.380Z,50.20
2022-08-28T06:35:08.755Z,65.25
2022-08-28T06:35:43.345Z,63.55
2022-08-28T06:36:18.115Z,53.20
2022-08-28T06:36:53.823Z,54.75
2022-08-28T06:37:26.734Z,83.15
2022-08-28T06:38:01.985Z,50.25
2022-08-28T06:38:34.529Z,52.70
2022-08-28T06:39:07.449Z,73.72
2022-08-28T06:39:42.280Z,60.85
2022-08-28T06:40:15.018Z,52.97
2022-08-28T06:40:53.260Z,59.75
2022-08-28T06:41:28.549Z,64.07
2022-08-28T06:42:02.574Z,95.55
2022-08-28T06:42:34.758Z,49.55
2022-08-28T06:43:09.873Z,71.25
2022-08-28T06:43:42.179Z,113.13
2022-08-28T06:44:19.748Z,97.68
2022-08-28T06:44:54.533Z,98.82
2022-08-28T06:45:29.403Z,86.60
2022-08-28T06:46:02.363Z,137.30
2022-08-28T06:46:38.494Z,110.80
2022-08-28T06:47:11.654Z,72.60
2022-08-28T06:47:43.938Z,76.28
2022-08-28T06:48:21.087Z,61.42
2022-08-28T06:48:53.510Z,84.85
2022-08-28T06:49:25.689Z,48.40
2022-08-28T06:50:00.546Z,111.72
2022-08-28T06:50:32.839Z,83.90
2022-08-28T06:51:07.762Z,62.33
2022-08-28T06:51:42.944Z,128.15
2022-08-28T06:52:15.261Z,149.88
2022-08-28T06:52:47.927Z,96.63
2022-08-28T06:53:25.233Z,118.63
2022-08-28T06:53:57.564Z,91.65
2022-08-28T06:54:31.168Z,100.80
2022-08-28T06:55:06.111Z,104.03
2022-08-28T06:55:39.147Z,80.10
2022-08-28T06:56:13.736Z,91.85
2022-08-28T06:57:00.634Z,87.05
2022-08-28T06:57:32.894Z,100.22
2022-08-28T06:58:06.290Z,102.88
2022-08-28T06:58:43.375Z,99.47
2022-08-28T06:59:22.417Z,89.32
2022-08-28T06:59:56.041Z,87.15
2022-08-28T07:00:33.538Z,91.30
2022-08-28T07:01:08.934Z,88.38
2022-08-28T07:01:43.744Z,138.75
2022-08-28T07:02:16.765Z,148.02
2022-08-28T07:02:49.135Z,136.60
2022-08-28T07:03:23.995Z,131.48
2022-08-28T07:03:59.546Z,122.10
2022-08-28T07:04:34.473Z,110.72
2022-08-28T07:05:08.820Z,153.40
2022-08-28T07:05:41.573Z,157.43
2022-08-28T07:06:17.670Z,145.07
2022-08-28T07:06:54.249Z,151.10
2022-08-28T07:07:31.826Z,88.85
2022-08-28T07:08:07.593Z,108.60
2022-08-28T07:08:41.223Z,101.80
2022-08-28T07:09:16.042Z,111.03
2022-08-28T07:09:48.400Z,135.57
2022-08-28T07:10:21.034Z,107.18
2022-08-28T07:10:55.995Z,127.80
2022-08-28T07:11:30.446Z,116.85
2022-08-28T07:12:05.538Z,114.47
2022-08-28T07:12:38.387Z,105.47
2022-08-28T07:13:10.567Z,79.03
2022-08-28T07:13:44.206Z,139.77
2022-08-28T07:14:19.329Z,94.05
2022-08-28T07:14:51.505Z,107.45
2022-08-28T07:15:23.701Z,127.63
2022-08-28T07:16:02.214Z,103.30
2022-08-28T07:16:38.468Z,134.25
2022-08-28T07:17:13.455Z,134.07
2022-08-28T07:17:45.726Z,133.18
2022-08-28T07:18:18.518Z,105.93
2022-08-28T07:18:53.310Z,115.65
2022-08-28T07:19:25.491Z,138.02
2022-08-28T07:19:57.841Z,124.78
2022-08-28T07:20:32.854Z,113.93
2022-08-28T07:21:11.603Z,135.93
2022-08-28T07:21:48.346Z,120.93
2022-08-28T07:22:20.665Z,156.50
2022-08-28T07:22:59.360Z,124.93
2022-08-28T07:23:35.397Z,161.45